Time;durP1;ratioP1;P1;durP2;ratioP2;P2;SDS_P1;SDS_P2;PMS_P1;PMS_P2;Temp;Humidity;BMP_temperature;BMP_pressure;BME280_temperature;BME280_humidity;BME280_pressure;Samples;Min_cycle;Max_cycle;Signal;HPM_P1;HPM_P2
2023/09/06 00:00:45;;;;;;;4.38;2.42;;;21.80;99.90;;;;;;5048161;28;20051;-35
2023/09/06 00:03:12;;;;;;;3.63;2.13;;;21.70;99.90;;;;;;5189543;22;20042;-88
2023/09/06 00:05:46;;;;;;;6.43;2.50;;;21.70;99.90;;;;;;5026024;28;20053;-87
2023/09/06 00:08:14;;;;;;;5.10;2.53;;;21.60;99.90;;;;;;5006873;28;20458;-87
2023/09/06 00:10:47;;;;;;;5.35;2.47;;;21.60;99.90;;;;;;5006735;28;20335;-87
2023/09/06 00:13:17;;;;;;;4.65;2.78;;;21.50;99.90;;;;;;5018128;28;20033;-88
2023/09/06 00:15:45;;;;;;;3.75;2.10;;;21.40;99.90;;;;;;5024297;28;20037;-87
2023/09/06 00:18:22;;;;;;;7.72;2.75;;;21.40;99.90;;;;;;5008280;28;20033;-89
2023/09/06 00:20:48;;;;;;;3.80;2.72;;;21.30;99.90;;;;;;5004906;28;20037;-87
2023/09/06 00:23:27;;;;;;;3.75;2.50;;;21.30;99.90;;;;;;5007904;28;20037;-87
2023/09/06 00:25:55;;;;;;;3.72;2.63;;;21.30;99.90;;;;;;5012890;28;20492;-87
2023/09/06 00:28:25;;;;;;;4.28;2.60;;;21.20;99.90;;;;;;5024197;28;20041;-86
2023/09/06 00:30:57;;;;;;;4.15;2.88;;;21.20;99.90;;;;;;4986571;28;20059;-87
2023/09/06 00:33:26;;;;;;;4.38;2.97;;;21.10;99.90;;;;;;4974880;28;20528;-87
2023/09/06 00:35:58;;;;;;;6.72;2.97;;;21.10;99.90;;;;;;5030579;28;20045;-88
2023/09/06 00:38:33;;;;;;;3.20;2.28;;;21.00;99.90;;;;;;4997968;28;20498;-87
2023/09/06 00:41:01;;;;;;;5.78;2.70;;;21.00;99.90;;;;;;5013328;28;20619;-87
2023/09/06 00:43:28;;;;;;;3.53;2.45;;;21.00;99.90;;;;;;4997258;28;20584;-87
2023/09/06 00:45:55;;;;;;;5.53;3.00;;;21.00;99.90;;;;;;5031102;28;20107;-87
2023/09/06 00:48:26;;;;;;;3.92;2.42;;;20.90;99.90;;;;;;5029643;28;20064;-88
2023/09/06 00:50:54;;;;;;;2.80;2.08;;;20.90;99.90;;;;;;5012859;28;20061;-88
2023/09/06 00:53:24;;;;;;;4.35;2.90;;;20.90;99.90;;;;;;5030447;28;20045;-88
2023/09/06 00:55:51;;;;;;;5.82;2.70;;;20.90;99.90;;;;;;5027595;28;20533;-87
2023/09/06 00:58:19;;;;;;;4.70;2.50;;;20.80;99.90;;;;;;4994188;28;20060;-88
2023/09/06 01:00:47;;;;;;;5.40;2.75;;;20.80;99.90;;;;;;5016485;28;20053;-86
2023/09/06 01:03:13;;;;;;;5.00;2.53;;;20.80;99.90;;;;;;5012387;28;20417;-86
2023/09/06 01:05:51;;;;;;;4.32;2.65;;;20.80;99.90;;;;;;4993836;28;20088;-88
2023/09/06 01:08:24;;;;;;;3.88;2.60;;;20.70;99.90;;;;;;5025796;28;20037;-87
2023/09/06 01:10:53;;;;;;;4.20;2.95;;;20.70;99.90;;;;;;5014041;28;20426;-86
2023/09/06 01:13:20;;;;;;;3.63;2.17;;;20.70;99.90;;;;;;5015887;28;20131;-87
2023/09/06 01:15:47;;;;;;;3.60;2.70;;;20.60;99.90;;;;;;4997026;28;20042;-87
2023/09/06 01:18:16;;;;;;;7.03;3.85;;;20.60;99.90;;;;;;5067474;23;20144;-33
2023/09/06 01:20:52;;;;;;;4.65;2.50;;;20.50;99.90;;;;;;5045530;28;20095;-33
2023/09/06 01:23:35;;;;;;;4.57;2.80;;;20.50;99.90;;;;;;5050549;28;20559;-33
2023/09/06 01:26:03;;;;;;;6.55;2.65;;;20.50;99.90;;;;;;5040347;28;20476;-33
2023/09/06 01:28:29;;;;;;;3.72;2.70;;;20.40;99.90;;;;;;5042801;28;20867;-33
2023/09/06 01:30:55;;;;;;;4.88;2.58;;;20.40;99.90;;;;;;5046521;28;20041;-33
2023/09/06 01:33:22;;;;;;;5.53;2.92;;;20.30;99.90;;;;;;5046946;28;20413;-33
2023/09/06 01:35:49;;;;;;;3.50;2.38;;;20.30;99.90;;;;;;5046909;28;20417;-33
2023/09/06 01:38:15;;;;;;;4.13;3.00;;;20.30;99.90;;;;;;5041607;28;20041;-33
2023/09/06 01:40:44;;;;;;;2.97;2.25;;;20.20;99.90;;;;;;5048597;28;20146;-33
2023/09/06 01:43:10;;;;;;;3.65;2.72;;;20.10;99.90;;;;;;5046644;28;20529;-34
2023/09/06 01:45:38;;;;;;;3.75;2.60;;;20.10;99.90;;;;;;5048025;28;20033;-33
2023/09/06 01:48:04;;;;;;;3.50;2.53;;;20.00;99.90;;;;;;5049450;28;20509;-33
2023/09/06 01:50:29;;;;;;;6.07;2.70;;;20.00;99.90;;;;;;5044761;28;20041;-33
2023/09/06 01:52:55;;;;;;;4.00;2.17;;;20.00;99.90;;;;;;5046944;28;20048;-33
2023/09/06 01:55:21;;;;;;;3.83;2.80;;;20.00;99.90;;;;;;5045292;28;20774;-34
2023/09/06 01:57:47;;;;;;;6.20;2.60;;;19.90;99.90;;;;;;5047454;28;20095;-33
2023/09/06 02:00:25;;;;;;;5.53;2.95;;;19.90;99.90;;;;;;5045695;28;20328;-33
2023/09/06 02:02:50;;;;;;;4.70;2.50;;;19.90;99.90;;;;;;5047948;28;20045;-33
2023/09/06 02:05:16;;;;;;;4.20;2.42;;;19.90;99.90;;;;;;5045781;28;20037;-34
2023/09/06 02:07:46;;;;;;;4.00;2.40;;;19.90;99.90;;;;;;5045497;28;20506;-34
2023/09/06 02:10:12;;;;;;;5.20;2.78;;;19.90;99.90;;;;;;5044152;28;20077;-34
2023/09/06 02:12:38;;;;;;;4.53;2.67;;;19.90;99.90;;;;;;5043060;28;20072;-34
2023/09/06 02:15:05;;;;;;;5.60;2.45;;;19.90;99.90;;;;;;5043781;28;20174;-34
2023/09/06 02:17:32;;;;;;;3.03;2.25;;;19.80;99.90;;;;;;5046674;28;20407;-34
2023/09/06 02:20:06;;;;;;;4.00;2.30;;;19.80;99.90;;;;;;5047537;28;20116;-34
2023/09/06 02:22:31;;;;;;;4.03;2.83;;;19.80;99.90;;;;;;5046836;28;20075;-34
2023/09/06 02:24:59;;;;;;;5.43;2.50;;;19.80;99.90;;;;;;5044685;28;20457;-34
2023/09/06 02:27:24;;;;;;;5.10;2.80;;;19.80;99.90;;;;;;5040694;28;20040;-34
2023/09/06 02:29:51;;;;;;;4.00;2.45;;;19.70;99.90;;;;;;5045278;28;20037;-34
2023/09/06 02:32:17;;;;;;;3.15;2.20;;;19.70;99.90;;;;;;5040918;28;20041;-34
2023/09/06 02:34:42;;;;;;;3.65;2.03;;;19.70;99.90;;;;;;5048532;28;20041;-34
2023/09/06 02:37:08;;;;;;;2.75;2.00;;;19.60;99.90;;;;;;5046782;28;20037;-34
2023/09/06 02:39:37;;;;;;;3.83;2.30;;;19.50;99.90;;;;;;5046361;28;20103;-34
2023/09/06 02:42:02;;;;;;;4.97;2.75;;;19.40;99.90;;;;;;5043877;28;20037;-34
2023/09/06 02:44:28;;;;;;;4.47;2.90;;;19.30;99.90;;;;;;5047989;28;20059;-34
2023/09/06 02:46:54;;;;;;;4.25;2.50;;;19.30;99.90;;;;;;5046070;28;20148;-34
2023/09/06 02:49:19;;;;;;;3.70;2.58;;;19.30;99.90;;;;;;5051663;28;20412;-34
2023/09/06 02:51:47;;;;;;;4.03;2.17;;;19.20;99.90;;;;;;5043369;28;20036;-33
2023/09/06 02:54:17;;;;;;;5.22;2.55;;;19.20;99.90;;;;;;5043876;28;20088;-34
2023/09/06 02:56:45;;;;;;;3.05;2.33;;;19.20;99.90;;;;;;5046590;28;20536;-34
2023/09/06 02:59:15;;;;;;;3.63;2.83;;;19.20;99.90;;;;;;5047313;28;20099;-34
2023/09/06 03:01:44;;;;;;;5.30;2.33;;;19.20;99.90;;;;;;5043476;28;20183;-34
2023/09/06 03:04:13;;;;;;;4.47;2.47;;;19.10;99.90;;;;;;5043292;28;20485;-34
2023/09/06 03:06:43;;;;;;;3.95;2.58;;;19.10;99.90;;;;;;5043190;28;20516;-34
2023/09/06 03:09:12;;;;;;;3.47;2.40;;;19.10;99.90;;;;;;5044465;28;20067;-33
2023/09/06 03:11:38;;;;;;;3.25;2.08;;;19.00;99.90;;;;;;5042375;28;20056;-34
2023/09/06 03:14:04;;;;;;;3.75;2.72;;;18.90;99.90;;;;;;5047282;28;20509;-34
2023/09/06 03:16:38;;;;;;;7.13;3.00;;;18.90;99.90;;;;;;5042185;28;20504;-34
2023/09/06 03:19:09;;;;;;;6.70;2.70;;;18.80;99.90;;;;;;5046549;28;20098;-34
2023/09/06 03:21:37;;;;;;;3.50;2.03;;;18.90;99.90;;;;;;5047430;28;20037;-34
2023/09/06 03:24:11;;;;;;;4.53;2.90;;;18.80;99.90;;;;;;5038448;28;20072;-41
2023/09/06 03:26:40;;;;;;;4.88;2.80;;;18.80;99.90;;;;;;5043193;28;20072;-34
2023/09/06 03:29:10;;;;;;;5.03;3.05;;;18.80;99.90;;;;;;5046026;28;20041;-34
2023/09/06 03:31:42;;;;;;;4.13;3.10;;;18.80;99.90;;;;;;5047353;28;20383;-34
2023/09/06 03:34:15;;;;;;;;;;;18.70;99.90;;;;;;5042899;28;20156;-34
2023/09/06 03:36:41;;;;;;;5.20;2.75;;;18.70;99.90;;;;;;5039380;28;19920;-34
2023/09/06 03:39:12;;;;;;;5.15;3.22;;;18.70;99.90;;;;;;5047866;28;20375;-34
2023/09/06 03:41:42;;;;;;;6.63;3.00;;;18.60;99.90;;;;;;5044876;28;20044;-34
2023/09/06 03:44:08;;;;;;;5.75;2.72;;;18.60;99.90;;;;;;5036108;28;20388;-34
2023/09/06 03:46:34;;;;;;;10.02;3.00;;;18.60;99.90;;;;;;5041917;28;20076;-34
2023/09/06 03:49:05;;;;;;;5.70;2.83;;;18.50;99.90;;;;;;5041352;28;20075;-33
2023/09/06 03:51:32;;;;;;;5.30;3.10;;;18.50;99.90;;;;;;5041857;28;20041;-34
2023/09/06 03:53:59;;;;;;;5.90;2.85;;;18.50;99.90;;;;;;5035558;28;20704;-34
2023/09/06 03:56:26;;;;;;;4.80;2.75;;;18.50;99.90;;;;;;5039604;28;20053;-34
2023/09/06 03:58:55;;;;;;;4.47;3.03;;;18.50;99.90;;;;;;5045010;28;21142;-34
2023/09/06 04:01:25;;;;;;;4.13;3.13;;;18.50;99.90;;;;;;5042580;28;20413;-34
2023/09/06 04:03:51;;;;;;;4.72;2.63;;;18.50;99.90;;;;;;5043115;28;20049;-34
2023/09/06 04:06:17;;;;;;;4.63;3.33;;;18.50;99.90;;;;;;5046499;28;20414;-34
2023/09/06 04:08:43;;;;;;;3.75;2.90;;;18.50;99.90;;;;;;5041773;28;20066;-34
2023/09/06 04:11:11;;;;;;;4.90;3.17;;;18.40;99.90;;;;;;5044982;28;20068;-34
2023/09/06 04:13:39;;;;;;;5.47;3.05;;;18.40;99.90;;;;;;5023921;28;20032;-35
2023/09/06 04:16:05;;;;;;;3.88;2.80;;;18.40;99.90;;;;;;5045001;28;20045;-34
2023/09/06 04:18:31;;;;;;;3.22;2.35;;;18.40;99.90;;;;;;5047207;28;20051;-34
2023/09/06 04:20:59;;;;;;;3.53;2.60;;;18.30;99.90;;;;;;5049146;28;20033;-34
2023/09/06 04:23:25;;;;;;;4.22;3.28;;;18.30;99.90;;;;;;5034477;28;20394;-34
2023/09/06 04:25:51;;;;;;;4.53;2.72;;;18.30;99.90;;;;;;5043580;28;20135;-34
2023/09/06 04:28:20;;;;;;;6.13;2.60;;;18.20;99.90;;;;;;5045251;28;20041;-34
2023/09/06 04:30:46;;;;;;;4.78;2.97;;;18.20;99.90;;;;;;5043144;28;20398;-33
2023/09/06 04:33:14;;;;;;;4.22;2.92;;;18.10;99.90;;;;;;5042574;28;20037;-35
2023/09/06 04:35:42;;;;;;;5.15;2.97;;;18.00;99.90;;;;;;5044569;28;20047;-33
2023/09/06 04:38:12;;;;;;;6.60;3.38;;;18.00;99.90;;;;;;5045298;28;20045;-33
2023/09/06 04:40:38;;;;;;;4.70;3.28;;;18.00;99.90;;;;;;5043635;28;20037;-33
2023/09/06 04:43:06;;;;;;;6.20;3.72;;;18.00;99.90;;;;;;5042383;28;20051;-33
2023/09/06 04:45:32;;;;;;;3.55;2.63;;;18.00;99.90;;;;;;5046049;28;20120;-33
2023/09/06 04:47:58;;;;;;;4.53;2.50;;;18.00;99.90;;;;;;5045928;28;20037;-33
2023/09/06 04:50:24;;;;;;;5.28;3.30;;;18.00;99.90;;;;;;5044338;28;20471;-33
2023/09/06 04:52:54;;;;;;;4.30;3.03;;;17.90;99.90;;;;;;5044621;28;20435;-33
2023/09/06 04:55:19;;;;;;;4.60;3.03;;;17.90;99.90;;;;;;5044606;28;20120;-33
2023/09/06 04:57:46;;;;;;;5.00;3.20;;;17.90;99.90;;;;;;5047847;28;20117;-33
2023/09/06 05:00:47;;;;;;;6.20;3.10;;;17.90;99.90;;;;;;5049598;28;20549;-33
2023/09/06 05:03:10;;;;;;;5.28;3.28;;;17.90;99.90;;;;;;5042909;28;20060;-33
2023/09/06 05:05:37;;;;;;;7.43;3.95;;;17.90;99.90;;;;;;5048025;28;20044;-34
2023/09/06 05:08:03;;;;;;;5.40;4.00;;;17.90;99.90;;;;;;5043712;28;20511;-34
2023/09/06 05:10:30;;;;;;;5.00;3.42;;;17.90;99.90;;;;;;5049805;28;20049;-33
2023/09/06 05:12:55;;;;;;;4.38;3.00;;;17.90;99.90;;;;;;5047740;28;20044;-33
2023/09/06 05:15:21;;;;;;;4.57;3.20;;;17.90;99.90;;;;;;5046805;28;20044;-33
2023/09/06 05:17:47;;;;;;;6.38;3.67;;;17.90;99.90;;;;;;5047908;28;20132;-33
2023/09/06 05:20:29;;;;;;;5.38;3.28;;;17.90;99.90;;;;;;5047779;28;20037;-33
2023/09/06 05:23:06;;;;;;;4.00;3.17;;;17.90;99.90;;;;;;5045897;28;20132;-33
2023/09/06 05:25:33;;;;;;;6.30;3.65;;;17.90;99.90;;;;;;5045930;28;20178;-34
2023/09/06 05:28:01;;;;;;;6.65;4.00;;;17.90;99.90;;;;;;5040332;28;20041;-33
2023/09/06 05:30:27;;;;;;;4.60;3.08;;;17.90;99.90;;;;;;5042349;28;20402;-34
2023/09/06 05:32:56;;;;;;;6.30;3.20;;;17.90;99.90;;;;;;5044657;28;20049;-34
2023/09/06 05:35:26;;;;;;;6.03;3.50;;;17.90;99.90;;;;;;5046163;28;20067;-34
2023/09/06 05:37:52;;;;;;;6.28;3.10;;;18.00;99.90;;;;;;5037431;28;20041;-34
2023/09/06 05:40:22;;;;;;;7.15;3.70;;;17.90;99.90;;;;;;5045227;28;20219;-33
2023/09/06 05:42:51;;;;;;;7.22;3.42;;;18.00;99.90;;;;;;5048162;28;20037;-34
2023/09/06 05:45:21;;;;;;;5.68;3.22;;;18.00;99.90;;;;;;5046296;28;20037;-34
2023/09/06 05:47:48;;;;;;;4.93;3.20;;;18.00;99.90;;;;;;5047469;28;20048;-34
2023/09/06 05:50:13;;;;;;;5.75;3.15;;;18.00;99.90;;;;;;5045462;28;20090;-41
2023/09/06 05:52:40;;;;;;;4.50;3.20;;;18.10;99.90;;;;;;5045215;28;20053;-34
2023/09/06 05:55:06;;;;;;;7.90;3.50;;;18.10;99.90;;;;;;5043045;28;20040;-34
2023/09/06 05:57:32;;;;;;;5.97;3.25;;;18.10;99.90;;;;;;5043141;28;20067;-34
2023/09/06 05:59:58;;;;;;;6.60;3.40;;;18.20;99.90;;;;;;5038395;28;20046;-33
2023/09/06 06:02:24;;;;;;;6.15;3.17;;;18.20;99.90;;;;;;5040210;28;20068;-33
2023/09/06 06:04:50;;;;;;;7.07;3.25;;;18.30;99.90;;;;;;5040015;28;20053;-33
2023/09/06 06:07:17;;;;;;;7.72;3.83;;;18.30;99.90;;;;;;5037323;28;20549;-33
2023/09/06 06:09:43;;;;;;;5.93;3.42;;;18.30;99.90;;;;;;5036013;28;20090;-33
2023/09/06 06:12:13;;;;;;;6.80;3.72;;;18.40;99.90;;;;;;5044370;28;20048;-33
2023/09/06 06:14:41;;;;;;;4.90;2.97;;;18.40;99.90;;;;;;5037436;28;20513;-33
2023/09/06 06:17:08;;;;;;;5.47;3.33;;;18.50;99.90;;;;;;5042870;28;20185;-33
2023/09/06 06:19:35;;;;;;;4.28;2.83;;;18.50;99.90;;;;;;5041877;28;20487;-33
2023/09/06 06:22:02;;;;;;;4.75;2.78;;;18.60;99.90;;;;;;5045518;28;20036;-34
2023/09/06 06:24:35;;;;;;;6.40;3.55;;;18.60;99.90;;;;;;5045277;28;20481;-33
2023/09/06 06:27:01;;;;;;;4.88;3.00;;;18.70;99.90;;;;;;5042216;28;20120;-33
2023/09/06 06:29:26;;;;;;;6.68;3.70;;;18.70;99.90;;;;;;5038411;28;20051;-33
2023/09/06 06:31:52;;;;;;;4.55;2.95;;;18.80;99.90;;;;;;5032692;28;20032;-33
2023/09/06 06:34:18;;;;;;;4.10;2.83;;;18.80;99.90;;;;;;5032562;28;20029;-33
2023/09/06 06:36:47;;;;;;;4.15;2.97;;;18.90;99.90;;;;;;5035557;28;20132;-34
2023/09/06 06:39:14;;;;;;;6.20;3.10;;;18.90;99.90;;;;;;5033562;28;20523;-34
2023/09/06 06:41:42;;;;;;;5.57;3.05;;;19.00;99.90;;;;;;5036199;28;20690;-33
2023/09/06 06:44:08;;;;;;;5.50;3.00;;;19.10;99.90;;;;;;5034522;28;20518;-34
2023/09/06 06:46:36;;;;;;;4.50;3.03;;;19.10;99.90;;;;;;5034968;28;20032;-33
2023/09/06 06:49:04;;;;;;;3.85;2.78;;;19.10;99.90;;;;;;5024221;28;20033;-34
2023/09/06 06:51:35;;;;;;;3.78;2.90;;;19.20;99.90;;;;;;5043453;28;20743;-34
2023/09/06 06:54:10;;;;;;;7.47;3.15;;;19.30;99.90;;;;;;5039919;28;20047;-34
2023/09/06 06:56:37;;;;;;;8.93;3.00;;;19.30;99.90;;;;;;5042773;28;20497;-34
2023/09/06 06:59:03;;;;;;;4.70;2.83;;;19.40;99.90;;;;;;5047304;28;20055;-33
2023/09/06 07:01:31;;;;;;;9.57;3.03;;;19.40;99.90;;;;;;5043726;28;20171;-34
2023/09/06 07:03:57;;;;;;;3.28;2.28;;;19.50;99.90;;;;;;5048129;28;20405;-34
2023/09/06 07:06:24;;;;;;;4.00;2.80;;;19.60;99.90;;;;;;5047968;28;20437;-34
2023/09/06 07:08:50;;;;;;;5.60;2.88;;;19.60;99.90;;;;;;5045461;28;20060;-34
2023/09/06 07:11:16;;;;;;;8.07;2.83;;;19.70;99.90;;;;;;5044143;28;20459;-34
2023/09/06 07:13:42;;;;;;;4.80;3.08;;;19.70;99.90;;;;;;5044126;28;20456;-34
2023/09/06 07:16:11;;;;;;;6.68;2.88;;;19.80;99.90;;;;;;5040906;28;20037;-33
2023/09/06 07:18:36;;;;;;;5.30;2.75;;;19.90;99.90;;;;;;5044276;28;20133;-33
2023/09/06 07:21:02;;;;;;;4.93;3.00;;;19.90;99.90;;;;;;5037065;28;20127;-33
2023/09/06 07:23:28;;;;;;;6.00;2.67;;;20.00;99.90;;;;;;5042457;28;20056;-33
2023/09/06 07:25:54;;;;;;;4.38;2.63;;;20.10;99.90;;;;;;5044169;28;20028;-33
2023/09/06 07:28:25;;;;;;;6.05;2.90;;;20.10;99.90;;;;;;5045605;28;20049;-34
2023/09/06 07:30:51;;;;;;;6.57;3.22;;;20.20;99.90;;;;;;5040633;28;20052;-34
2023/09/06 07:33:16;;;;;;;5.15;2.70;;;20.20;99.90;;;;;;5043893;28;20389;-34
2023/09/06 07:35:42;;;;;;;4.15;2.67;;;20.30;99.90;;;;;;5045335;28;20044;-34
2023/09/06 07:38:08;;;;;;;5.88;3.00;;;20.30;99.90;;;;;;5044406;28;20140;-33
2023/09/06 07:40:34;;;;;;;5.65;2.67;;;20.40;99.90;;;;;;5046858;28;20036;-33
2023/09/06 07:43:00;;;;;;;5.03;2.83;;;20.50;99.90;;;;;;5042432;28;20520;-34
2023/09/06 07:45:25;;;;;;;4.70;2.30;;;20.50;99.90;;;;;;5044783;28;20037;-34
2023/09/06 07:47:51;;;;;;;5.65;2.53;;;20.60;99.90;;;;;;5041826;28;20037;-34
2023/09/06 07:50:17;;;;;;;5.97;2.72;;;20.70;99.90;;;;;;5043884;28;20099;-34
2023/09/06 07:52:43;;;;;;;3.75;2.58;;;20.80;99.90;;;;;;5039134;28;20043;-34
2023/09/06 07:55:09;;;;;;;3.67;2.40;;;20.90;99.90;;;;;;5020378;28;20049;-34
2023/09/06 07:57:34;;;;;;;3.70;2.40;;;21.00;99.90;;;;;;5037742;28;20107;-33
2023/09/06 08:00:00;;;;;;;4.75;2.70;;;21.10;99.90;;;;;;5037079;28;20049;-34
2023/09/06 08:02:25;;;;;;;3.67;2.28;;;21.10;99.90;;;;;;5040246;28;20064;-33
2023/09/06 08:04:51;;;;;;;6.18;2.45;;;21.20;99.90;;;;;;5041144;28;20494;-34
2023/09/06 08:07:17;;;;;;;4.25;2.78;;;21.40;99.90;;;;;;5039471;28;20477;-34
2023/09/06 08:09:43;;;;;;;3.80;2.28;;;21.40;99.90;;;;;;5039576;28;20033;-34
2023/09/06 08:12:09;;;;;;;3.58;2.38;;;21.60;99.90;;;;;;5039648;28;20043;-34
2023/09/06 08:14:35;;;;;;;4.35;2.15;;;21.70;99.90;;;;;;5039372;28;22307;-34
2023/09/06 08:17:01;;;;;;;4.20;2.17;;;21.80;99.90;;;;;;5041069;28;20090;-33
2023/09/06 08:19:27;;;;;;;3.35;2.17;;;21.90;99.90;;;;;;5045726;28;20556;-34
2023/09/06 08:21:53;;;;;;;4.57;2.03;;;22.00;99.90;;;;;;5046772;28;20040;-34
2023/09/06 08:24:18;;;;;;;4.88;2.33;;;22.10;99.90;;;;;;5043059;28;20469;-34
2023/09/06 08:26:48;;;;;;;6.45;2.20;;;22.20;99.90;;;;;;5029860;28;20044;-34
2023/09/06 08:29:13;;;;;;;3.28;2.10;;;22.30;99.90;;;;;;5036436;28;20518;-34
2023/09/06 08:31:39;;;;;;;5.00;2.08;;;22.40;99.90;;;;;;5038275;28;20135;-34
2023/09/06 08:34:05;;;;;;;4.25;2.20;;;22.50;99.90;;;;;;5042037;28;20130;-34
2023/09/06 08:36:31;;;;;;;4.20;1.90;;;22.50;99.90;;;;;;5041102;28;20049;-34
2023/09/06 08:38:57;;;;;;;3.38;2.10;;;22.70;99.90;;;;;;5042342;28;20061;-34
2023/09/06 08:41:26;;;;;;;4.72;1.90;;;22.80;99.90;;;;;;5041432;28;20068;-34
2023/09/06 08:43:53;;;;;;;3.00;1.65;;;22.90;99.90;;;;;;5043156;28;20028;-34
2023/09/06 08:46:23;;;;;;;3.60;2.00;;;23.00;99.90;;;;;;5042120;28;21338;-34
2023/09/06 08:48:51;;;;;;;3.85;2.17;;;23.10;99.90;;;;;;5045899;28;20055;-34
2023/09/06 08:51:18;;;;;;;4.75;2.00;;;23.20;99.90;;;;;;5044120;28;20090;-34
2023/09/06 08:53:45;;;;;;;3.00;1.83;;;23.30;99.90;;;;;;5049593;28;20494;-34
2023/09/06 08:56:12;;;;;;;2.90;1.63;;;23.40;99.90;;;;;;5048933;28;20037;-34
2023/09/06 08:58:38;;;;;;;3.85;1.92;;;23.50;99.90;;;;;;5044762;28;20035;-34
2023/09/06 09:01:04;;;;;;;3.60;1.67;;;23.50;99.90;;;;;;5046172;28;20504;-34
2023/09/06 09:03:31;;;;;;;5.32;2.03;;;23.70;99.90;;;;;;5041828;28;20036;-34
2023/09/06 09:06:02;;;;;;;4.60;2.28;;;23.80;99.90;;;;;;5046321;28;20156;-41
2023/09/06 09:08:31;;;;;;;4.82;1.85;;;23.80;99.90;;;;;;5047984;28;20041;-34
2023/09/06 09:11:18;;;;;;;4.43;1.95;;;23.90;99.90;;;;;;5046256;28;20163;-34
2023/09/06 09:13:45;;;;;;;2.97;1.67;;;24.10;99.90;;;;;;5041720;28;20041;-34
2023/09/06 09:16:15;;;;;;;4.10;2.10;;;24.20;99.90;;;;;;5042961;28;20562;-34
2023/09/06 09:18:43;;;;;;;3.25;2.00;;;24.20;99.90;;;;;;5041022;28;20109;-34
2023/09/06 09:21:13;;;;;;;6.68;1.60;;;24.30;99.90;;;;;;5042613;28;20052;-34
2023/09/06 09:23:44;;;;;;;2.45;1.58;;;24.40;99.90;;;;;;5041480;28;20151;-34
2023/09/06 09:26:10;;;;;;;2.45;1.58;;;24.50;99.90;;;;;;5042597;28;20083;-34
2023/09/06 09:28:37;;;;;;;3.75;1.90;;;24.60;99.90;;;;;;5042924;28;20073;-34
2023/09/06 09:31:02;;;;;;;5.50;2.08;;;24.70;99.90;;;;;;5043242;28;20028;-34
2023/09/06 09:33:29;;;;;;;6.93;1.90;;;24.80;99.90;;;;;;5039895;28;20071;-34
2023/09/06 09:35:56;;;;;;;2.72;1.90;;;25.00;99.90;;;;;;5043548;28;20048;-34
2023/09/06 09:38:21;;;;;;;2.65;1.80;;;25.10;99.90;;;;;;5041546;28;20047;-34
2023/09/06 09:41:05;;;;;;;3.08;1.80;;;25.20;99.90;;;;;;5040595;28;20044;-34
2023/09/06 09:43:31;;;;;;;7.13;2.13;;;25.30;99.90;;;;;;5041717;28;20119;-34
2023/09/06 09:45:57;;;;;;;4.00;1.70;;;25.30;99.90;;;;;;5042002;28;20528;-34
2023/09/06 09:48:31;;;;;;;3.17;1.80;;;25.30;99.90;;;;;;5040572;28;20502;-34
2023/09/06 09:51:01;;;;;;;2.58;1.55;;;25.40;99.90;;;;;;5040483;28;20040;-34
2023/09/06 09:53:30;;;;;;;3.95;1.70;;;25.50;99.90;;;;;;5045095;28;20033;-34
2023/09/06 09:56:00;;;;;;;2.92;1.83;;;25.60;99.90;;;;;;5039638;28;20052;-34
2023/09/06 09:58:28;;;;;;;3.75;1.88;;;25.80;99.90;;;;;;5032248;28;20063;-34
2023/09/06 10:00:56;;;;;;;4.30;1.70;;;25.90;99.90;;;;;;5043602;28;20048;-34
2023/09/06 10:03:22;;;;;;;4.45;2.05;;;25.90;99.90;;;;;;5046934;28;20498;-34
2023/09/06 10:05:49;;;;;;;2.80;1.90;;;26.00;99.90;;;;;;5047641;28;20052;-34
2023/09/06 10:08:18;;;;;;;2.22;1.50;;;26.00;99.90;;;;;;5048383;28;20029;-34
2023/09/06 10:10:44;;;;;;;2.42;1.85;;;26.20;99.90;;;;;;5044725;28;20056;-34
2023/09/06 10:13:13;;;;;;;3.60;1.50;;;26.30;99.90;;;;;;5042376;28;20041;-34
2023/09/06 10:15:39;;;;;;;2.83;1.70;;;26.30;99.90;;;;;;5030706;28;20575;-34
2023/09/06 10:18:06;;;;;;;2.50;1.42;;;26.40;99.90;;;;;;5043883;28;20048;-34
2023/09/06 10:20:34;;;;;;;3.03;1.70;;;26.50;99.90;;;;;;5039173;28;20047;-34
2023/09/06 10:23:00;;;;;;;4.15;1.65;;;26.60;99.90;;;;;;5043854;28;20045;-34
2023/09/06 10:25:26;;;;;;;3.50;1.70;;;26.70;99.90;;;;;;5042067;28;20395;-34
2023/09/06 10:27:54;;;;;;;2.97;1.73;;;26.70;99.90;;;;;;5023062;28;20041;-34
2023/09/06 10:30:34;;;;;;;3.35;1.48;;;26.80;99.90;;;;;;5033513;28;20091;-34
2023/09/06 10:33:01;;;;;;;2.72;1.70;;;26.90;99.90;;;;;;5037622;28;20047;-35
2023/09/06 10:35:31;;;;;;;4.10;1.63;;;27.00;99.90;;;;;;5040910;28;20523;-34
2023/09/06 10:38:08;;;;;;;2.92;1.70;;;27.00;99.90;;;;;;5041633;28;20044;-34
2023/09/06 10:40:49;;;;;;;5.75;1.90;;;27.10;99.90;;;;;;5043697;28;20386;-35
2023/09/06 10:43:15;;;;;;;2.97;1.80;;;27.10;99.90;;;;;;5050404;28;20063;-35
2023/09/06 10:46:13;;;;;;;2.40;1.67;;;27.10;99.90;;;;;;5048768;28;20033;-35
2023/09/06 10:48:39;;;;;;;3.13;2.00;;;27.10;99.90;;;;;;5035625;28;20059;-35
2023/09/06 10:51:09;;;;;;;2.60;1.90;;;27.20;99.90;;;;;;5046893;28;20128;-35
2023/09/06 10:53:36;;;;;;;3.88;1.98;;;27.30;99.90;;;;;;5045980;28;20397;-35
2023/09/06 10:56:03;;;;;;;2.40;1.88;;;27.40;99.90;;;;;;5046883;28;20128;-35
2023/09/06 10:58:32;;;;;;;3.08;1.92;;;27.40;99.90;;;;;;5042735;28;20036;-35
2023/09/06 11:01:17;;;;;;;7.00;1.88;;;27.40;99.90;;;;;;5039351;28;20041;-35
2023/09/06 11:03:54;;;;;;;4.82;1.67;;;27.50;99.90;;;;;;5045822;28;20076;-35
2023/09/06 11:06:19;;;;;;;3.47;1.95;;;27.60;99.90;;;;;;5043756;28;20044;-35
2023/09/06 11:08:46;;;;;;;4.20;1.83;;;27.60;99.90;;;;;;5047805;28;20037;-35
2023/09/06 11:11:14;;;;;;;2.65;1.80;;;27.70;99.90;;;;;;5043890;28;20088;-35
2023/09/06 11:13:42;;;;;;;3.15;1.55;;;27.70;99.90;;;;;;5042621;28;20044;-35
2023/09/06 11:16:14;;;;;;;5.88;1.70;;;27.80;99.90;;;;;;5047518;28;20045;-35
2023/09/06 11:18:44;;;;;;;3.65;1.60;;;28.00;99.90;;;;;;5044737;28;20136;-35
2023/09/06 11:21:10;;;;;;;3.10;1.50;;;28.00;99.90;;;;;;5041329;28;20595;-35
2023/09/06 11:23:50;;;;;;;3.58;1.80;;;28.00;99.90;;;;;;5044559;28;20036;-34
2023/09/06 11:26:16;;;;;;;1.90;1.40;;;28.00;99.90;;;;;;5040547;28;20388;-35
2023/09/06 11:28:50;;;;;;;1.85;1.25;;;28.10;99.90;;;;;;5047412;28;20049;-35
2023/09/06 11:31:25;;;;;;;5.07;2.00;;;28.20;99.90;;;;;;5046712;28;20490;-35
2023/09/06 11:33:55;;;;;;;2.53;1.52;;;28.30;99.90;;;;;;5047424;28;20375;-35
2023/09/06 11:36:26;;;;;;;5.45;1.50;;;28.40;99.90;;;;;;5045820;28;20082;-35
2023/09/06 11:38:53;;;;;;;2.40;1.38;;;28.50;99.90;;;;;;5048410;28;20041;-35
2023/09/06 11:41:20;;;;;;;2.92;1.67;;;28.60;99.90;;;;;;5043087;28;20053;-35
2023/09/06 11:43:49;;;;;;;3.05;1.48;;;28.70;99.90;;;;;;5044269;28;20047;-36
2023/09/06 11:46:17;;;;;;;2.72;1.52;;;28.70;99.90;;;;;;5035626;28;20076;-35
2023/09/06 11:48:44;;;;;;;2.75;1.33;;;28.90;99.90;;;;;;5042328;28;20051;-35
2023/09/06 11:51:12;;;;;;;2.40;1.33;;;28.90;99.90;;;;;;5038592;28;20052;-35
2023/09/06 11:53:41;;;;;;;2.55;1.40;;;28.90;99.90;;;;;;5041086;28;20041;-35
2023/09/06 11:56:08;;;;;;;3.42;1.55;;;28.90;99.90;;;;;;5038615;28;21218;-35
2023/09/06 11:58:42;;;;;;;2.50;1.80;;;29.00;99.90;;;;;;5042452;28;20052;-34
2023/09/06 12:01:10;;;;;;;3.58;1.42;;;29.10;99.90;;;;;;5037486;28;20051;-34
2023/09/06 12:03:44;;;;;;;3.58;1.85;;;29.20;99.90;;;;;;5038804;28;20525;-34
2023/09/06 12:06:10;;;;;;;3.55;1.45;;;29.30;99.90;;;;;;5036313;28;20041;-33
2023/09/06 12:08:38;;;;;;;4.07;1.50;;;29.40;99.90;;;;;;5042114;28;20040;-34
2023/09/06 12:11:20;;;;;;;5.15;2.00;;;29.40;99.90;;;;;;5045230;28;20033;-35
2023/09/06 12:13:46;;;;;;;;;;;29.50;99.90;;;;;;5036419;28;20041;-35
2023/09/06 12:16:11;;;;;;;3.72;1.33;;;29.60;99.90;;;;;;5042244;28;19962;-35
2023/09/06 12:18:38;;;;;;;2.10;1.63;;;29.70;99.90;;;;;;5043236;28;20049;-35
2023/09/06 12:21:05;;;;;;;2.33;1.45;;;29.90;99.90;;;;;;5027476;28;20162;-35
2023/09/06 12:23:33;;;;;;;6.47;1.80;;;30.00;99.90;;;;;;5045534;28;20064;-35
2023/09/06 12:26:01;;;;;;;4.60;1.70;;;30.10;99.90;;;;;;5037901;28;20037;-35
2023/09/06 12:28:31;;;;;;;3.60;2.10;;;30.00;99.90;;;;;;5043599;28;20080;-35
2023/09/06 12:31:01;;;;;;;4.93;2.15;;;30.00;99.90;;;;;;5040679;28;20052;-34
2023/09/06 12:33:27;;;;;;;2.50;2.17;;;30.20;99.90;;;;;;5043671;28;20044;-35
2023/09/06 12:35:59;;;;;;;4.38;2.10;;;30.40;99.90;;;;;;5044856;28;20402;-34
2023/09/06 12:38:29;;;;;;;2.72;1.80;;;30.40;99.90;;;;;;5039073;28;20068;-34
2023/09/06 12:40:56;;;;;;;5.05;2.00;;;30.50;99.90;;;;;;5024175;28;20044;-35
2023/09/06 12:43:24;;;;;;;2.97;2.22;;;30.60;99.90;;;;;;5043418;28;20029;-35
2023/09/06 12:45:50;;;;;;;4.90;2.10;;;30.70;99.90;;;;;;5038890;28;20063;-34
2023/09/06 12:48:16;;;;;;;3.28;1.98;;;31.00;99.90;;;;;;5044365;28;20530;-34
2023/09/06 12:50:42;;;;;;;2.13;1.55;;;31.10;99.90;;;;;;5045101;28;20051;-35
2023/09/06 12:53:07;;;;;;;3.03;1.80;;;31.30;99.90;;;;;;5038357;28;20044;-35